Map

Track Data

SID SEASON NUMBER BASIN SUBBASIN NAME ISO_TIME NATURE LAT LON WMO_WIND WMO_PRES WMO_AGENCY TRACK_TYPE DIST2LAND LANDFALL IFLAG USA_AGENCY USA_ATCF_ID USA_LAT USA_LON USA_RECORD USA_STATUS USA_WIND USA_PRES USA_SSHS USA_R34_NE USA_R34_SE USA_R34_SW USA_R34_NW USA_R50_NE USA_R50_SE USA_R50_SW USA_R50_NW USA_R64_NE USA_R64_SE USA_R64_SW USA_R64_NW USA_POCI USA_ROCI USA_RMW USA_EYE TOKYO_LAT TOKYO_LON TOKYO_GRADE TOKYO_WIND TOKYO_PRES TOKYO_R50_DIR TOKYO_R50_LONG TOKYO_R50_SHORT TOKYO_R30_DIR TOKYO_R30_LONG TOKYO_R30_SHORT TOKYO_LAND CMA_LAT CMA_LON CMA_CAT CMA_WIND CMA_PRES HKO_LAT HKO_LON HKO_CAT HKO_WIND HKO_PRES NEWDELHI_LAT NEWDELHI_LON NEWDELHI_GRADE NEWDELHI_WIND NEWDELHI_PRES NEWDELHI_CI NEWDELHI_DP NEWDELHI_POCI REUNION_LAT REUNION_LON REUNION_TYPE REUNION_WIND REUNION_PRES REUNION_TNUM REUNION_CI REUNION_RMW REUNION_R34_NE REUNION_R34_SE REUNION_R34_SW REUNION_R34_NW REUNION_R50_NE REUNION_R50_SE REUNION_R50_SW REUNION_R50_NW REUNION_R64_NE REUNION_R64_SE REUNION_R64_SW REUNION_R64_NW BOM_LAT BOM_LON BOM_TYPE BOM_WIND BOM_PRES BOM_TNUM BOM_CI BOM_RMW BOM_R34_NE BOM_R34_SE BOM_R34_SW BOM_R34_NW BOM_R50_NE BOM_R50_SE BOM_R50_SW BOM_R50_NW BOM_R64_NE BOM_R64_SE BOM_R64_SW BOM_R64_NW BOM_ROCI BOM_POCI BOM_EYE BOM_POS_METHOD BOM_PRES_METHOD NADI_LAT NADI_LON NADI_CAT NADI_WIND NADI_PRES WELLINGTON_LAT WELLINGTON_LON WELLINGTON_WIND WELLINGTON_PRES DS824_LAT DS824_LON DS824_STAGE DS824_WIND DS824_PRES TD9636_LAT TD9636_LON TD9636_STAGE TD9636_WIND TD9636_PRES TD9635_LAT TD9635_LON TD9635_WIND TD9635_PRES TD9635_ROCI NEUMANN_LAT NEUMANN_LON NEUMANN_CLASS NEUMANN_WIND NEUMANN_PRES MLC_LAT MLC_LON MLC_CLASS MLC_WIND MLC_PRES USA_GUST BOM_GUST BOM_GUST_PER REUNION_GUST REUNION_GUST_PER USA_SEAHGT USA_SEARAD_NE USA_SEARAD_SE USA_SEARAD_SW USA_SEARAD_NW STORM_SPEED STORM_DIR
1963244N13111 1963 78 WP MM NOT_NAMED 1963-08-31 18:00:00 TS 12.5000 110.500 main 109 109 __O___________ -1 12.5000 110.500 0 1002 7 147
1963244N13111 1963 78 WP MM NOT_NAMED 1963-08-31 21:00:00 TS 12.2198 110.688 main 137 137 __P___________ -1 12.2198 110.688 0 1002 7 136
1963244N13111 1963 78 WP MM NOT_NAMED 1963-09-01 00:00:00 TS 12.0000 111.000 main 176 176 __O___________ -1 12.0000 111.000 1 23 1002 9 112
1963244N13111 1963 78 WP MM NOT_NAMED 1963-09-01 03:00:00 TS 11.9027 111.500 main 231 231 __P___________ -1 11.9027 111.500 1 23 1002 10 90
1963244N13111 1963 78 WP MM NOT_NAMED 1963-09-01 06:00:00 TS 12.0000 112.000 main 279 279 __O___________ -1 12.0000 112.000 1 23 1002 9 62
1963244N13111 1963 78 WP MM NOT_NAMED 1963-09-01 09:00:00 TS 12.3249 112.325 main 306 304 __P___________ -1 12.3249 112.325 1 21 1003 13 30
1963244N13111 1963 78 WP MM NOT_NAMED 1963-09-01 12:00:00 TS 13.1000 112.660 main 347 347 __O_______O___ -1 12.8000 112.500 0 19 1004 14.3000 113.300 1 14 17
1963244N13111 1963 78 WP MM NOT_NAMED 1963-09-01 15:00:00 TS 13.6969 112.751 main 368 360 __P_______P___ -1 13.3149 112.575 0 19 1003 14.4610 113.102 1 11 1
1963244N13111 1963 78 WP MM NOT_NAMED 1963-09-01 18:00:00 TS 14.1504 112.668 main 368 349 __O_______P___ -1 13.8000 112.500 0 19 1003 14.6176 112.893 1 8 341
1963244N13111 1963 78 WP MM NOT_NAMED 1963-09-01 21:00:00 TS 14.4739 112.483 main 351 322 __P_______P___ -1 14.1825 112.303 0 19 1003 14.7653 112.662 1 7 318
1963244N13111 1963 78 WP MM NOT_NAMED 1963-09-02 00:00:00 TS 14.6500 112.200 main 325 294 __O_______O___ -1 14.4000 112.000 0 19 1003 14.9000 112.400 1 6 292
1963244N13111 1963 78 WP MM NOT_NAMED 1963-09-02 03:00:00 TS 14.7105 111.870 main 294 253 __P_______P___ -1 14.4026 111.642 0 19 1003 15.0184 112.098 1 7 275
1963244N13111 1963 78 WP MM NOT_NAMED 1963-09-02 06:00:00 TS 14.7112 111.530 main 253 233 __O_______P___ -1 14.3000 111.300 0 19 1003 15.1224 111.760 1 6 272
1963244N13111 1963 78 WP MM NOT_NAMED 1963-09-02 09:00:00 TS 14.7363 111.235 main 223 203 __P_______P___ -1 14.2574 111.078 0 1002 15.2152 111.392 1 6 274
1963244N13111 1963 78 WP MM NOT_NAMED 1963-09-02 12:00:00 TS 14.7500 110.950 main 204 172 __O_______O___ -1 14.2000 110.900 0 1002 15.3000 111.000 1 6 273
1963244N13111 1963 78 WP MM NOT_NAMED 1963-09-02 15:00:00 TS 14.7678 110.649 main 161 140 __P_______P___ -1 14.0925 110.700 0 1002 15.4431 110.597 1 6 273
1963244N13111 1963 78 WP MM NOT_NAMED 1963-09-02 18:00:00 TS 14.7850 110.337 main 129 97 __O_______P___ -1 14.0000 110.500 0 1002 15.5699 110.174 1 6 274
1963244N13111 1963 78 WP MM NOT_NAMED 1963-09-02 21:00:00 TS 14.8109 110.019 main 97 65 __P_______P___ -1 13.9850 110.300 0 1002 15.6368 109.738 1 6 271
1963244N13111 1963 78 WP MM NOT_NAMED 1963-09-03 00:00:00 TS 14.8000 109.700 main 65 32 __O_______O___ -1 14.0000 110.100 0 1002 15.6000 109.300 1 6 261
1963244N13111 1963 78 WP MM NOT_NAMED 1963-09-03 03:00:00 TS 14.7079 109.381 main 32 0 __P_______P___ -1 14.0000 109.893 0 1002 15.4157 108.870 1 7 249
1963244N13111 1963 78 WP MM NOT_NAMED 1963-09-03 06:00:00 TS 14.5636 109.071 main 0 0 __O_______P___ -1 14.0000 109.700 0 1002 15.1272 108.442 1 7 241
1963244N13111 1963 78 WP MM NOT_NAMED 1963-09-03 09:00:00 TS 14.3875 108.787 main 0 0 __P_______P___ -1 13.9999 109.558 0 1002 14.7751 108.017 1 7 237
1963244N13111 1963 78 WP MM NOT_NAMED 1963-09-03 12:00:00 TS 14.2000 108.500 main 0 0 __O_______O___ -1 14.0000 109.400 0 1002 14.4000 107.600 1 7 237
1963244N13111 1963 78 WP MM NOT_NAMED 1963-09-03 15:00:00 TS 14.0197 108.204 main 0 0 __P_______P___ -1 13.9999 109.195 0 1002 14.0395 107.213 1 7 239
1963244N13111 1963 78 WP MM NOT_NAMED 1963-09-03 18:00:00 TS 13.8346 107.865 main 0 0 __O_______P___ -1 14.0000 108.900 0 1002 13.6693 106.830 1 8 243
1963244N13111 1963 78 WP MM NOT_NAMED 1963-09-03 21:00:00 TS 13.6535 107.460 main 0 0 __P_______P___ -1 13.9925 108.487 0 1002 13.3145 106.432 1 9 248
1963244N13111 1963 78 WP MM NOT_NAMED 1963-09-04 00:00:00 TS 13.5000 107.000 main 0 0 __O_______O___ -1 14.0000 108.000 0 1002 13.0000 106.000 1 10 253
1963244N13111 1963 78 WP MM NOT_NAMED 1963-09-04 03:00:00 TS 13.3716 106.507 main 0 0 __P_______P___ -1 14.0349 107.507 0 1002 12.7082 105.507 1 12 253
1963244N13111 1963 78 WP MM NOT_NAMED 1963-09-04 06:00:00 TS 13.1658 105.845 main 0 0 __O_______P___ -1 14.1000 107.000 0 1002 12.4651 104.980 1 14 252
1963244N13111 1963 78 WP MM NOT_NAMED 1963-09-04 09:00:00 TS 12.9238 105.124 main 0 0 __P_______P___ -1 14.1927 106.498 0 1003 12.2894 104.438 1 16 250
1963244N13111 1963 78 WP MM NOT_NAMED 1963-09-04 12:00:00 TS 12.6200 104.320 main 0 0 __O_______O___ -1 14.3000 106.000 0 1004 12.2000 103.900 1 18 247
1963244N13111 1963 78 WP MM NOT_NAMED 1963-09-04 15:00:00 NR 12.2083 103.381 main 0 0 __________P___ -1 0 12.2083 103.381 1 14 257
1963244N13111 1963 78 WP MM NOT_NAMED 1963-09-04 18:00:00 NR 12.2954 102.879 main 0 0 __________P___ -1 12.2954 102.879 1 10 283
1963244N13111 1963 78 WP MM NOT_NAMED 1963-09-04 21:00:00 NR 12.4348 102.387 main 0 0 __________P___ -1 12.4348 102.387 1 10 288
1963244N13111 1963 78 WP MM NOT_NAMED 1963-09-05 00:00:00 NR 12.6000 101.900 main 0 __________O___ -1 12.6000 101.900 1 10 289

Digital Typhoon Data and Search

About IBTrACS Database

This database is a web-friendly format of International Best Track Archive for Climate Stewardship (IBTrACS), a global best track data archive curated by NOAA dating back to 1842.

Updated: 2021-12-03